createdAt,value
2022-11-28T00:01:42.040Z,73.85
2022-11-28T00:04:11.081Z,73.71
2022-11-28T00:06:45.407Z,73.68
2022-11-28T00:09:14.957Z,73.57
2022-11-28T00:11:44.905Z,73.52
2022-11-28T00:14:13.652Z,73.52
2022-11-28T00:16:42.743Z,73.59
2022-11-28T00:19:12.584Z,73.82
2022-11-28T00:21:41.768Z,73.90
2022-11-28T00:24:09.958Z,74.08
2022-11-28T00:26:40.561Z,73.86
2022-11-28T00:29:10.458Z,73.67
2022-11-28T00:31:42.757Z,73.49
2022-11-28T00:34:13.619Z,73.34
2022-11-28T00:36:44.585Z,73.35
2022-11-28T00:39:13.142Z,73.48
2022-11-28T00:41:41.763Z,73.54
2022-11-28T00:44:11.474Z,73.61
2022-11-28T00:46:39.775Z,73.89
2022-11-28T00:49:08.242Z,73.89
2022-11-28T00:51:36.730Z,73.84
2022-11-28T00:54:06.216Z,73.66
2022-11-28T00:56:37.544Z,73.65
2022-11-28T00:59:06.253Z,73.60
2022-11-28T01:01:38.605Z,73.63
2022-11-28T01:04:09.944Z,73.69
2022-11-28T01:06:41.922Z,73.66
2022-11-28T01:09:19.683Z,73.70
2022-11-28T01:11:49.275Z,73.84
2022-11-28T01:14:21.826Z,73.82
2022-11-28T01:16:50.189Z,73.91
2022-11-28T01:19:18.418Z,73.94
2022-11-28T01:21:47.183Z,74.02
2022-11-28T01:24:15.469Z,73.88
2022-11-28T01:26:43.741Z,73.79
2022-11-28T01:29:12.319Z,73.79
2022-11-28T01:31:41.172Z,73.79
2022-11-28T01:34:09.446Z,73.66
2022-11-28T01:36:37.301Z,73.79
2022-11-28T01:39:06.407Z,73.81
2022-11-28T01:41:34.725Z,73.94
2022-11-28T01:44:25.945Z,74.02
2022-11-28T01:46:53.854Z,73.98
2022-11-28T01:49:31.861Z,74.08
2022-11-28T01:52:07.212Z,74.10
2022-11-28T01:54:36.411Z,74.10
2022-11-28T01:57:12.565Z,74.16
2022-11-28T01:59:45.637Z,74.11
2022-11-28T02:02:20.293Z,74.04
2022-11-28T02:04:50.597Z,73.99
2022-11-28T02:07:20.798Z,73.79
2022-11-28T02:09:48.881Z,73.60
2022-11-28T02:12:23.011Z,73.63
2022-11-28T02:14:53.937Z,73.83
2022-11-28T02:17:50.056Z,74.03
2022-11-28T02:20:33.065Z,74.08
2022-11-28T02:23:28.472Z,74.26
2022-11-28T02:26:31.648Z,74.32
2022-11-28T02:29:36.380Z,74.14
2022-11-28T02:32:23.404Z,73.89
2022-11-28T02:35:06.521Z,73.79
2022-11-28T02:38:00.711Z,73.74
2022-11-28T02:40:39.226Z,73.89
2022-11-28T02:43:11.800Z,73.97
2022-11-28T02:45:50.315Z,74.14
2022-11-28T02:48:37.932Z,74.32
2022-11-28T02:51:21.137Z,74.24
2022-11-28T02:53:51.093Z,74.20
2022-11-28T02:56:19.659Z,74.04
2022-11-28T02:58:47.577Z,73.92
2022-11-28T03:01:21.184Z,74.13
2022-11-28T03:04:12.383Z,74.28
2022-11-28T03:07:04.118Z,74.37
2022-11-28T03:10:01.403Z,74.47
2022-11-28T03:12:42.048Z,74.41
2022-11-28T03:15:13.259Z,74.34
2022-11-28T03:18:07.646Z,74.47
2022-11-28T03:20:46.393Z,74.55
2022-11-28T03:23:37.430Z,74.33
2022-11-28T03:26:25.079Z,74.48
2022-11-28T03:29:26.044Z,74.53
2022-11-28T03:31:59.770Z,74.49
2022-11-28T03:34:37.645Z,74.52
2022-11-28T03:37:13.978Z,74.54
2022-11-28T03:39:46.919Z,74.56
2022-11-28T03:42:21.137Z,74.57
2022-11-28T03:44:59.223Z,74.61
2022-11-28T03:47:31.544Z,74.63
2022-11-28T03:50:06.944Z,74.64
2022-11-28T03:52:46.540Z,74.75
2022-11-28T03:55:22.453Z,74.75
2022-11-28T03:58:10.508Z,74.92
2022-11-28T04:00:58.611Z,74.88
2022-11-28T04:03:52.349Z,74.87
2022-11-28T04:06:26.216Z,74.91
2022-11-28T04:09:23.272Z,75.05
2022-11-28T04:11:59.328Z,75.04
2022-11-28T04:14:34.901Z,75.20
2022-11-28T04:17:16.090Z,75.22
2022-11-28T04:19:50.826Z,75.11
2022-11-28T04:22:25.216Z,75.19
2022-11-28T04:24:57.686Z,75.14
2022-11-28T04:27:35.139Z,75.09
2022-11-28T04:30:05.712Z,75.10
2022-11-28T04:32:36.586Z,75.06
2022-11-28T04:35:17.050Z,75.15
2022-11-28T04:37:48.862Z,75.19
2022-11-28T04:40:20.328Z,75.25
2022-11-28T04:42:53.795Z,75.21
2022-11-28T04:45:28.368Z,75.29
2022-11-28T04:47:56.990Z,75.52
2022-11-28T04:50:31.918Z,75.46
2022-11-28T04:53:09.639Z,75.45
2022-11-28T04:55:49.333Z,75.58
2022-11-28T04:58:36.256Z,75.63
2022-11-28T05:01:10.101Z,75.77
2022-11-28T05:03:42.830Z,75.91
2022-11-28T05:06:11.472Z,76.06
2022-11-28T05:08:39.814Z,75.99
2022-11-28T05:11:07.915Z,76.09
2022-11-28T05:13:35.818Z,76.18
2022-11-28T05:16:06.079Z,76.28
2022-11-28T05:18:34.003Z,76.25
2022-11-28T05:21:01.802Z,76.10
2022-11-28T05:23:29.765Z,75.80
2022-11-28T05:25:57.985Z,75.74
2022-11-28T05:28:26.220Z,75.70
2022-11-28T05:30:59.367Z,75.75
2022-11-28T05:33:29.467Z,75.82
2022-11-28T05:36:05.487Z,78.25
2022-11-28T05:38:37.594Z,78.24
2022-11-28T05:41:06.217Z,77.35
2022-11-28T05:43:34.272Z,77.21
2022-11-28T05:46:05.777Z,77.09
2022-11-28T05:48:34.094Z,76.97
2022-11-28T05:51:05.468Z,76.76
2022-11-28T05:53:34.039Z,76.62
2022-11-28T05:56:10.029Z,76.74
2022-11-28T05:58:38.681Z,76.69
2022-11-28T06:01:15.696Z,76.59
2022-11-28T06:03:44.685Z,76.52
2022-11-28T06:06:15.615Z,76.48
2022-11-28T06:08:44.816Z,76.56
2022-11-28T06:11:15.000Z,76.46
2022-11-28T06:13:44.769Z,76.46
2022-11-28T06:16:17.648Z,76.66
2022-11-28T06:18:46.195Z,76.59
2022-11-28T06:21:15.544Z,76.35
2022-11-28T06:23:43.821Z,76.38
2022-11-28T06:26:15.502Z,76.24
2022-11-28T06:28:44.311Z,76.01
2022-11-28T06:31:24.521Z,75.79
2022-11-28T06:33:53.191Z,75.61
2022-11-28T06:36:21.406Z,75.49
2022-11-28T06:38:49.504Z,75.50
2022-11-28T06:41:20.070Z,75.48
2022-11-28T06:43:48.326Z,75.43
2022-11-28T06:46:19.444Z,75.21
2022-11-28T06:48:49.462Z,75.38
2022-11-28T06:51:20.153Z,75.31
2022-11-28T06:53:48.953Z,75.32
2022-11-28T06:56:19.711Z,75.13
2022-11-28T06:58:53.412Z,74.96
2022-11-28T07:01:23.416Z,74.87
2022-11-28T07:03:54.372Z,74.71
2022-11-28T07:06:25.142Z,74.78
2022-11-28T07:08:54.038Z,74.71
2022-11-28T07:11:31.757Z,74.52
2022-11-28T07:14:02.873Z,74.40
2022-11-28T07:16:33.445Z,74.17
2022-11-28T07:19:01.548Z,73.95
2022-11-28T07:21:29.959Z,73.91
2022-11-28T07:23:59.261Z,74.08
2022-11-28T07:26:27.675Z,74.07
2022-11-28T07:28:58.369Z,73.93
2022-11-28T07:31:32.383Z,73.90
2022-11-28T07:34:03.440Z,73.85
2022-11-28T07:36:32.419Z,73.53
2022-11-28T07:39:03.624Z,73.30
2022-11-28T07:41:32.173Z,76.01
2022-11-28T07:44:02.627Z,77.55
2022-11-28T07:46:32.577Z,75.58
2022-11-28T07:49:01.551Z,74.68
2022-11-28T07:51:32.095Z,74.09
2022-11-28T07:54:01.735Z,73.82
2022-11-28T07:56:57.163Z,73.58
2022-11-28T07:59:21.441Z,72.59
2022-11-28T08:01:50.140Z,71.50
2022-11-28T08:04:18.467Z,70.97
2022-11-28T08:06:46.360Z,70.89
2022-11-28T08:09:14.616Z,70.94
2022-11-28T08:11:43.294Z,70.59
2022-11-28T08:14:11.649Z,70.40
2022-11-28T08:16:45.363Z,70.52
2022-11-28T08:19:13.848Z,70.53
2022-11-28T08:21:42.378Z,70.47
2022-11-28T08:24:11.840Z,70.36
2022-11-28T08:26:40.185Z,70.14
2022-11-28T08:29:08.219Z,70.10
2022-11-28T08:31:38.380Z,70.00
2022-11-28T08:34:08.847Z,69.78
2022-11-28T08:36:37.534Z,70.02
2022-11-28T08:42:00.135Z,70.59
2022-11-28T08:44:30.406Z,71.04
2022-11-28T08:46:58.815Z,71.20
2022-11-28T08:49:27.063Z,71.49
2022-11-28T08:51:54.927Z,71.79
2022-11-28T08:54:22.973Z,71.95
2022-11-28T08:56:51.106Z,71.85
2022-11-28T08:59:19.289Z,71.98
2022-11-28T09:01:47.442Z,71.80
2022-11-28T09:04:15.705Z,71.72
2022-11-28T09:06:43.548Z,71.89
2022-11-28T09:09:11.848Z,71.96
2022-11-28T09:11:40.311Z,78.61
2022-11-28T09:14:08.939Z,80.82
2022-11-28T09:16:39.445Z,74.14
2022-11-28T09:19:09.491Z,72.22
2022-11-28T09:21:38.131Z,71.45
2022-11-28T09:24:07.046Z,71.38
2022-11-28T09:26:35.175Z,71.15
2022-11-28T09:29:03.422Z,71.23
2022-11-28T09:31:31.462Z,71.55
2022-11-28T09:33:59.732Z,71.61
2022-11-28T09:36:28.617Z,71.38
2022-11-28T09:38:56.639Z,71.55
2022-11-28T09:41:40.058Z,71.64
2022-11-28T09:44:26.747Z,71.84
2022-11-28T09:47:00.316Z,71.63
2022-11-28T09:49:42.213Z,71.66
2022-11-28T09:52:36.278Z,71.37
2022-11-28T09:55:16.220Z,71.44
2022-11-28T09:57:49.272Z,71.24
2022-11-28T10:00:32.964Z,71.35
2022-11-28T10:03:19.308Z,71.32
2022-11-28T10:06:07.643Z,71.09
2022-11-28T10:08:43.186Z,70.95
2022-11-28T10:11:44.193Z,70.50
2022-11-28T10:14:57.111Z,70.32
2022-11-28T10:17:43.256Z,70.52
2022-11-28T10:20:18.807Z,70.62
2022-11-28T10:22:54.814Z,70.58
2022-11-28T10:25:29.467Z,70.20
2022-11-28T10:27:58.022Z,70.03
2022-11-28T10:30:37.256Z,70.13
2022-11-28T10:33:09.847Z,69.94
2022-11-28T10:35:58.412Z,69.52
2022-11-28T10:38:29.077Z,69.63
2022-11-28T10:41:00.169Z,69.66
2022-11-28T10:44:06.864Z,69.13
2022-11-28T10:47:04.614Z,68.72
2022-11-28T10:49:50.754Z,68.46
2022-11-28T10:52:31.548Z,67.88
2022-11-28T10:55:11.767Z,67.70
2022-11-28T10:58:07.581Z,67.47
2022-11-28T11:00:36.877Z,66.92
2022-11-28T11:03:06.119Z,66.52
2022-11-28T11:05:36.702Z,66.33
2022-11-28T11:08:43.341Z,66.15
2022-11-28T11:11:31.919Z,65.77
2022-11-28T11:14:07.469Z,65.87
2022-11-28T11:16:56.938Z,65.75
2022-11-28T11:19:31.102Z,65.49
2022-11-28T11:22:19.001Z,65.50
2022-11-28T11:25:16.948Z,65.78
2022-11-28T11:27:53.695Z,65.37
2022-11-28T11:30:34.898Z,64.68
2022-11-28T11:33:06.312Z,64.53
2022-11-28T11:35:37.338Z,64.59
2022-11-28T11:38:14.211Z,64.41
2022-11-28T11:40:42.717Z,63.93
2022-11-28T11:43:32.401Z,63.97
2022-11-28T11:46:11.447Z,64.05
2022-11-28T11:48:43.613Z,64.12
2022-11-28T11:51:22.760Z,64.13
2022-11-28T11:54:20.356Z,63.80
2022-11-28T11:56:56.738Z,63.33
2022-11-28T11:59:42.627Z,63.21
2022-11-28T12:02:30.406Z,63.21
2022-11-28T12:05:09.945Z,63.48
2022-11-28T12:08:15.719Z,63.31
2022-11-28T12:10:50.923Z,62.67
2022-11-28T12:13:24.264Z,62.11
2022-11-28T12:15:55.192Z,62.26
2022-11-28T12:18:46.238Z,61.71
2022-11-28T12:21:25.227Z,61.58
2022-11-28T12:24:07.495Z,61.56
2022-11-28T12:26:50.683Z,61.00
2022-11-28T12:29:40.989Z,60.39
2022-11-28T12:32:18.060Z,59.90
2022-11-28T12:35:12.715Z,59.92
2022-11-28T12:38:16.841Z,60.00
2022-11-28T12:41:09.030Z,60.51
2022-11-28T12:44:14.251Z,60.50
2022-11-28T12:47:08.051Z,60.52
2022-11-28T12:49:45.731Z,60.68
2022-11-28T12:52:32.882Z,60.03
2022-11-28T12:55:00.946Z,60.15
2022-11-28T12:57:29.231Z,60.73
2022-11-28T13:00:13.593Z,60.93
2022-11-28T13:03:06.148Z,61.17
2022-11-28T13:05:52.927Z,61.11
2022-11-28T13:08:48.747Z,61.02
2022-11-28T13:11:44.595Z,61.60
2022-11-28T13:14:34.377Z,61.46
2022-11-28T13:17:35.977Z,61.15
2022-11-28T13:20:12.654Z,62.13
2022-11-28T13:22:47.096Z,62.09
2022-11-28T13:25:35.610Z,61.38
2022-11-28T13:28:13.335Z,61.17
2022-11-28T13:30:53.952Z,61.50
2022-11-28T13:33:28.296Z,62.02
2022-11-28T13:35:59.547Z,62.49
2022-11-28T13:39:12.929Z,62.53
2022-11-28T13:42:36.082Z,62.83
2022-11-28T13:44:57.820Z,63.18
2022-11-28T13:47:29.524Z,63.28
2022-11-28T13:50:28.359Z,63.38
2022-11-28T13:53:02.094Z,63.69
2022-11-28T13:55:36.172Z,64.03
2022-11-28T13:58:33.631Z,64.18
2022-11-28T14:01:12.028Z,64.37
2022-11-28T14:03:52.126Z,64.66
2022-11-28T14:06:22.896Z,64.79
2022-11-28T14:09:04.911Z,64.74
2022-11-28T14:11:50.153Z,64.94
2022-11-28T14:14:52.340Z,64.75
2022-11-28T14:17:39.678Z,64.88
2022-11-28T14:20:24.320Z,65.16
2022-11-28T14:23:46.748Z,65.17
2022-11-28T14:26:30.777Z,65.12
2022-11-28T14:28:59.510Z,65.39
2022-11-28T14:31:32.161Z,65.75
2022-11-28T14:34:37.898Z,66.18
2022-11-28T14:37:27.281Z,67.74
2022-11-28T14:39:57.291Z,67.14
2022-11-28T14:42:58.345Z,66.44
2022-11-28T14:45:41.438Z,66.48
2022-11-28T14:48:22.222Z,66.75
2022-11-28T14:50:57.558Z,66.94
2022-11-28T14:53:45.640Z,67.19
2022-11-28T14:56:13.923Z,67.43
2022-11-28T14:58:56.353Z,67.75
2022-11-28T15:01:45.252Z,68.21
2022-11-28T15:04:47.302Z,68.56
2022-11-28T15:07:37.519Z,68.85
2022-11-28T15:10:15.955Z,69.16
2022-11-28T15:12:59.785Z,69.32
2022-11-28T15:15:30.047Z,69.71
2022-11-28T15:18:00.878Z,70.88
2022-11-28T15:20:35.760Z,70.26
2022-11-28T15:23:04.568Z,70.14
2022-11-28T15:25:37.520Z,70.11
2022-11-28T15:28:16.373Z,70.31
2022-11-28T15:30:46.991Z,70.60
2022-11-28T15:33:14.992Z,70.68
2022-11-28T15:36:03.082Z,70.79
2022-11-28T15:38:32.451Z,70.81
2022-11-28T15:41:00.719Z,70.91
2022-11-28T15:43:31.670Z,70.95
2022-11-28T15:46:01.420Z,70.95
2022-11-28T15:48:39.383Z,71.00
2022-11-28T15:51:08.856Z,71.17
2022-11-28T15:53:42.597Z,71.29
2022-11-28T15:56:12.236Z,71.32
2022-11-28T15:58:42.963Z,71.54
2022-11-28T16:01:16.279Z,71.52
2022-11-28T16:03:56.898Z,71.58
2022-11-28T16:06:28.722Z,71.70
2022-11-28T16:09:00.277Z,71.95
2022-11-28T16:11:30.944Z,71.73
2022-11-28T16:14:06.452Z,71.73
2022-11-28T16:16:37.497Z,71.66
2022-11-28T16:19:26.963Z,71.68
2022-11-28T16:22:19.594Z,71.48
2022-11-28T16:24:56.361Z,71.50
2022-11-28T16:27:34.963Z,71.72
2022-11-28T16:30:31.405Z,71.96
2022-11-28T16:32:59.682Z,72.12
2022-11-28T16:35:42.383Z,72.20
2022-11-28T16:38:23.919Z,72.23
2022-11-28T16:40:59.062Z,72.22
2022-11-28T16:43:35.824Z,72.20
2022-11-28T16:46:07.264Z,72.20
2022-11-28T16:48:48.372Z,72.16
2022-11-28T16:51:37.387Z,72.14
2022-11-28T16:54:30.141Z,72.22
2022-11-28T16:57:12.120Z,72.34
2022-11-28T16:59:41.977Z,72.22
2022-11-28T17:02:30.701Z,72.19
2022-11-28T17:04:58.989Z,78.36
2022-11-28T17:07:27.477Z,78.29
2022-11-28T17:09:56.125Z,74.84
2022-11-28T17:12:42.084Z,73.00
2022-11-28T17:15:20.470Z,72.31
2022-11-28T17:17:48.611Z,72.17
2022-11-28T17:20:18.160Z,72.05
2022-11-28T17:22:48.209Z,71.87
2022-11-28T17:25:19.050Z,71.98
2022-11-28T17:27:50.071Z,72.25
2022-11-28T17:30:20.128Z,72.69
2022-11-28T17:32:48.592Z,72.91
2022-11-28T17:35:24.304Z,73.12
2022-11-28T17:37:52.454Z,73.53
2022-11-28T17:40:36.888Z,73.76
2022-11-28T17:43:05.305Z,74.04
2022-11-28T17:45:35.673Z,74.22
2022-11-28T17:48:03.711Z,74.60
2022-11-28T17:50:31.752Z,74.64
2022-11-28T17:52:59.783Z,74.68
2022-11-28T17:55:29.343Z,74.79
2022-11-28T17:57:57.570Z,74.75
2022-11-28T18:00:26.079Z,74.71
2022-11-28T18:02:55.483Z,74.71
2022-11-28T18:05:24.023Z,74.86
2022-11-28T18:07:51.837Z,74.82
2022-11-28T18:10:20.076Z,74.81
2022-11-28T18:12:49.341Z,74.85
2022-11-28T18:15:17.320Z,74.73
2022-11-28T18:17:46.185Z,74.68
2022-11-28T18:20:14.267Z,74.78
2022-11-28T18:22:42.695Z,74.73
2022-11-28T18:25:11.271Z,74.72
2022-11-28T18:27:39.529Z,74.76
2022-11-28T18:30:08.645Z,74.80
2022-11-28T18:32:37.137Z,74.75
2022-11-28T18:35:06.168Z,74.78
2022-11-28T18:37:34.910Z,74.92
2022-11-28T18:40:08.930Z,75.05
2022-11-28T18:42:37.431Z,74.97
2022-11-28T18:45:06.162Z,74.98
2022-11-28T18:47:35.604Z,75.06
2022-11-28T18:50:04.065Z,74.88
2022-11-28T18:52:32.015Z,74.70
2022-11-28T18:55:00.200Z,74.58
2022-11-28T18:57:32.889Z,74.50
2022-11-28T19:00:01.456Z,74.64
2022-11-28T19:02:30.355Z,74.56
2022-11-28T19:04:58.622Z,74.39
2022-11-28T19:07:27.803Z,74.26
2022-11-28T19:09:55.877Z,74.18
2022-11-28T19:12:23.904Z,74.26
2022-11-28T19:14:54.141Z,74.21
2022-11-28T19:17:25.336Z,74.09
2022-11-28T19:19:53.298Z,74.25
2022-11-28T19:22:22.573Z,74.31
2022-11-28T19:24:50.701Z,74.43
2022-11-28T19:27:18.947Z,74.37
2022-11-28T19:29:47.099Z,74.48
2022-11-28T19:32:17.044Z,74.28
2022-11-28T19:34:45.256Z,74.23
2022-11-28T19:37:16.113Z,74.25
2022-11-28T19:39:44.897Z,74.40
2022-11-28T19:42:13.415Z,74.48
2022-11-28T19:44:41.467Z,74.50
2022-11-28T19:47:09.772Z,74.36
2022-11-28T19:49:38.828Z,74.14
2022-11-28T19:52:07.611Z,74.22
2022-11-28T19:54:35.610Z,74.11
2022-11-28T19:57:04.289Z,73.91
2022-11-28T19:59:32.138Z,73.77
2022-11-28T20:02:01.011Z,73.88
2022-11-28T20:04:29.271Z,73.91
2022-11-28T20:06:57.724Z,73.75
2022-11-28T20:09:26.831Z,73.93
2022-11-28T20:11:55.364Z,73.86
2022-11-28T20:14:24.758Z,73.93
2022-11-28T20:16:53.975Z,73.91
2022-11-28T20:19:22.851Z,73.93
2022-11-28T20:21:50.926Z,73.78
2022-11-28T20:24:18.887Z,73.74
2022-11-28T20:26:47.716Z,73.63
2022-11-28T20:29:18.112Z,73.36
2022-11-28T20:31:47.923Z,73.03
2022-11-28T20:34:19.725Z,72.88
2022-11-28T20:36:52.317Z,72.57
2022-11-28T20:39:20.843Z,72.53
2022-11-28T20:41:48.898Z,72.49
2022-11-28T20:44:18.797Z,72.67
2022-11-28T20:46:47.172Z,72.79
2022-11-28T20:49:15.673Z,72.87
2022-11-28T20:51:43.873Z,72.93
2022-11-28T20:54:13.561Z,73.06
2022-11-28T20:57:12.842Z,73.23
2022-11-28T20:59:31.242Z,73.37
2022-11-28T21:01:59.381Z,73.47
2022-11-28T21:04:27.741Z,73.39
2022-11-28T21:06:55.931Z,73.34
2022-11-28T21:09:24.380Z,73.30
2022-11-28T21:11:59.836Z,73.27
2022-11-28T21:14:28.929Z,73.33
2022-11-28T21:16:58.206Z,73.29
2022-11-28T21:19:26.958Z,73.44
2022-11-28T21:21:55.189Z,73.49
2022-11-28T21:24:23.732Z,73.55
2022-11-28T21:26:54.540Z,73.64
2022-11-28T21:29:23.649Z,73.59
2022-11-28T21:31:53.255Z,73.93
2022-11-28T21:34:22.507Z,74.04
2022-11-28T21:36:50.893Z,74.24
2022-11-28T21:39:20.956Z,74.20
2022-11-28T21:41:51.202Z,74.64
2022-11-28T21:44:19.772Z,74.75
2022-11-28T21:46:47.628Z,74.70
2022-11-28T21:49:15.518Z,74.88
2022-11-28T21:51:43.733Z,74.96
2022-11-28T21:54:12.606Z,74.96
2022-11-28T21:56:41.039Z,74.99
2022-11-28T21:59:09.462Z,74.88
2022-11-28T22:01:37.384Z,74.48
2022-11-28T22:04:06.053Z,74.44
2022-11-28T22:06:34.056Z,74.36
2022-11-28T22:09:09.169Z,74.31
2022-11-28T22:11:39.317Z,74.36
2022-11-28T22:14:07.183Z,74.64
2022-11-28T22:16:35.982Z,74.65
2022-11-28T22:19:04.323Z,74.65
2022-11-28T22:24:21.580Z,74.68
2022-11-28T22:26:49.923Z,74.70
2022-11-28T22:29:18.956Z,74.65
2022-11-28T22:31:47.111Z,74.61
2022-11-28T22:34:15.519Z,74.67
2022-11-28T22:36:43.943Z,74.78
2022-11-28T22:39:12.294Z,74.90
2022-11-28T22:41:40.512Z,74.82
2022-11-28T22:44:10.296Z,75.02
2022-11-28T22:46:38.867Z,75.04
2022-11-28T22:49:08.266Z,75.04
2022-11-28T22:51:36.115Z,74.89
2022-11-28T22:54:05.019Z,74.86
2022-11-28T22:56:34.150Z,74.73
2022-11-28T22:59:04.920Z,74.96
2022-11-28T23:01:34.717Z,75.28
2022-11-28T23:04:02.647Z,75.47
2022-11-28T23:06:33.825Z,75.81
2022-11-28T23:09:06.792Z,75.99
2022-11-28T23:11:36.865Z,76.15
2022-11-28T23:14:06.955Z,76.29
2022-11-28T23:16:38.211Z,76.52
2022-11-28T23:19:11.138Z,76.57
2022-11-28T23:21:40.834Z,76.65
2022-11-28T23:24:17.435Z,76.63
2022-11-28T23:26:47.906Z,76.52
2022-11-28T23:29:16.226Z,76.47
2022-11-28T23:31:46.875Z,76.28
2022-11-28T23:34:15.637Z,76.15
2022-11-28T23:36:46.847Z,76.12
2022-11-28T23:39:20.687Z,75.97
2022-11-28T23:41:50.001Z,75.76
2022-11-28T23:44:19.631Z,75.60
2022-11-28T23:46:48.353Z,75.43
2022-11-28T23:49:16.555Z,75.56
2022-11-28T23:51:44.462Z,75.76
2022-11-28T23:54:12.743Z,75.86
2022-11-28T23:56:41.824Z,76.06
2022-11-28T23:59:11.014Z,76.09
